createdAt,value
2023-05-11T20:04:32.501Z,15.40
2023-05-11T20:06:59.427Z,15.10
2023-05-11T20:09:26.398Z,15.10
2023-05-11T20:11:53.589Z,15.00
2023-05-11T20:14:20.468Z,14.90
2023-05-11T20:16:47.419Z,14.80
2023-05-11T20:19:14.428Z,14.60
2023-05-11T20:21:41.751Z,14.40
2023-05-11T20:24:09.014Z,14.30
2023-05-11T20:26:37.132Z,14.20
2023-05-11T20:29:04.497Z,14.10
2023-05-11T20:31:32.909Z,14.10
2023-05-11T20:36:30.744Z,14.10
2023-05-11T20:38:58.607Z,14.10
2023-05-11T20:41:25.573Z,14.00
2023-05-11T20:43:53.021Z,14.10
2023-05-11T20:46:20.697Z,14.10
2023-05-11T20:48:51.460Z,13.90
2023-05-11T20:51:23.250Z,14.00
2023-05-11T20:53:50.779Z,13.80
2023-05-11T20:56:17.654Z,13.80
2023-05-11T20:58:47.627Z,13.70
2023-05-11T21:01:14.786Z,13.70
2023-05-11T21:03:41.951Z,13.60
2023-05-11T21:06:08.983Z,13.60
2023-05-11T21:08:36.434Z,13.60
2023-05-11T21:11:03.528Z,13.50
2023-05-11T21:13:30.831Z,13.60
2023-05-11T21:15:57.733Z,13.60
2023-05-11T21:18:32.031Z,13.50
2023-05-11T21:20:59.611Z,13.50
2023-05-11T21:23:26.865Z,13.50
2023-05-11T21:25:58.291Z,13.50
2023-05-11T21:28:27.142Z,13.50
2023-05-11T21:30:54.792Z,13.40
2023-05-11T21:33:21.961Z,13.40
2023-05-11T21:35:48.879Z,13.40
2023-05-11T21:38:17.214Z,13.30
2023-05-11T21:40:56.567Z,13.30
2023-05-11T21:43:23.456Z,13.40
2023-05-11T21:45:51.157Z,13.30
2023-05-11T21:48:18.237Z,13.30
2023-05-11T21:50:45.215Z,13.30
2023-05-11T21:53:12.171Z,13.30
2023-05-11T21:55:39.075Z,13.10
2023-05-11T21:58:06.110Z,13.10
2023-05-11T22:00:34.882Z,13.00
2023-05-11T22:03:02.073Z,12.90
2023-05-11T22:05:29.089Z,13.00
2023-05-11T22:08:06.681Z,12.80
2023-05-11T22:10:40.624Z,12.70
2023-05-11T22:13:07.513Z,12.70
2023-05-11T22:15:43.239Z,12.70
2023-05-11T22:18:10.174Z,12.70
2023-05-11T22:20:37.088Z,12.80
2023-05-11T22:23:04.619Z,12.60
2023-05-11T22:25:32.257Z,12.60
2023-05-11T22:27:59.249Z,12.60
2023-05-11T22:30:26.225Z,12.60
2023-05-11T22:32:53.276Z,12.60
2023-05-11T22:35:20.327Z,12.50
2023-05-11T22:37:47.334Z,12.60
2023-05-11T22:40:14.344Z,12.50
2023-05-11T22:42:41.763Z,12.50
2023-05-11T22:45:09.264Z,12.40
2023-05-11T22:47:36.164Z,12.30
2023-05-11T22:50:03.745Z,12.30
2023-05-11T22:52:30.730Z,12.30
2023-05-11T22:54:59.400Z,12.30
2023-05-11T22:57:26.995Z,12.20
2023-05-11T22:59:53.948Z,12.10
2023-05-11T23:02:21.192Z,12.10
2023-05-11T23:04:52.350Z,12.10
2023-05-11T23:07:20.001Z,12.00
2023-05-11T23:09:47.155Z,11.90
2023-05-11T23:12:14.072Z,11.80
2023-05-11T23:14:41.973Z,11.80
2023-05-11T23:17:09.213Z,11.80
2023-05-11T23:19:36.295Z,11.70
2023-05-11T23:22:03.422Z,11.70
2023-05-11T23:24:30.632Z,11.70
2023-05-11T23:26:57.619Z,11.70
2023-05-11T23:29:24.749Z,11.60
2023-05-11T23:31:51.772Z,11.60
2023-05-11T23:34:19.254Z,11.60
2023-05-11T23:36:46.752Z,11.60
2023-05-11T23:39:13.869Z,11.70
2023-05-11T23:41:40.818Z,11.80
2023-05-11T23:44:07.836Z,11.70
2023-05-11T23:46:34.816Z,11.70
2023-05-11T23:49:02.041Z,11.70
2023-05-11T23:51:29.004Z,11.70
2023-05-11T23:53:55.900Z,11.70
2023-05-11T23:56:22.843Z,11.80
2023-05-11T23:58:50.583Z,11.80
